^^
NorthLandsweather Station Historical Data
Daily Summary for March 15, 2019 Units:  Both    English   Metric
Daily Weekly Monthly Yearly Custom
  High: Low: Average:
Temperature: 34.9 °F /  1.6 °C 27.2 °F /  -2.7 °C 30.8 °F /  -0.7 °C
Dew Point: 33.1 °F /  0.6 °C 17.6 °F /  -8 °C 24.5 °F /  -4.2 °C
Humidity: 93% 58% 78%
Wind Speed: 19.6mph /  31.5km/h - 6.4mph /  10.3km/h
Wind Gust: 7.5mph /  12.1km/h - -
Wind- - WSW
Pressure: 30.19 in /  1022.2 hPa 29.52 in /  999.5 hPa -
Precipitation: 0.03 in /  0.76 mm    
Historical Graphs
 
 
Tabular Data for March 15, 2019
Time Temperature Dew Point Pressure Wind Wind Speed Wind Gust Humidity Rainfall Rate (Hourly) solar
00:04 34.9 °F /  1.6 °C 33.1 °F /  0.6 °C 29.53in /  999.9hPa NW 3.5mph /  5.6km/h 1.4mph /  2.3km/h 93% 0.00in /  0mm 0.00 W/m2
00:09 34.8 °F /  1.6 °C 33.0 °F /  0.6 °C 29.53in /  999.9hPa WNW 3.5mph /  5.6km/h 1.2mph /  1.9km/h 93% 0.00in /  0mm 0.00 W/m2
00:14 34.8 °F /  1.6 °C 33.0 °F /  0.6 °C 29.52in /  999.5hPa WNW 10.4mph /  16.7km/h 3.1mph /  5km/h 93% 0.00in /  0mm 0.00 W/m2
00:19 34.6 °F /  1.4 °C 32.8 °F /  0.4 °C 29.53in /  999.9hPa WNW 10.4mph /  16.7km/h 4.0mph /  6.4km/h 93% 0.00in /  0mm 0.00 W/m2
00:24 34.5 °F /  1.4 °C 32.4 °F /  0.2 °C 29.52in /  999.5hPa WNW 5.8mph /  9.3km/h 1.8mph /  2.9km/h 92% 0.00in /  0mm 0.00 W/m2
00:29 34.4 °F /  1.3 °C 32.6 °F /  0.3 °C 29.52in /  999.5hPa NW 3.0mph /  4.8km/h 1.8mph /  2.9km/h 93% 0.00in /  0mm 0.00 W/m2
00:34 34.3 °F /  1.3 °C 32.5 °F /  0.3 °C 29.52in /  999.5hPa West 3.5mph /  5.6km/h 2.0mph /  3.2km/h 93% 0.00in /  0mm 0.00 W/m2
00:39 34.3 °F /  1.3 °C 32.5 °F /  0.3 °C 29.53in /  999.9hPa West 3.0mph /  4.8km/h 2.9mph /  4.7km/h 93% 0.00in /  0mm 0.00 W/m2
00:44 34.2 °F /  1.2 °C 32.4 °F /  0.2 °C 29.53in /  999.9hPa WSW 6.9mph /  11.1km/h 2.9mph /  4.7km/h 93% 0.00in /  0mm 0.00 W/m2
00:49 34.1 °F /  1.2 °C 32.3 °F /  0.2 °C 29.54in /  1000.2hPa North 3.5mph /  5.6km/h 0.1mph /  0.2km/h 93% 0.00in /  0mm 0.00 W/m2
00:54 34.0 °F /  1.1 °C 32.2 °F /  0.1 °C 29.54in /  1000.2hPa SW 4.6mph /  7.4km/h 1.3mph /  2.1km/h 93% 0.00in /  0mm 0.00 W/m2
00:59 33.9 °F /  1.1 °C 32.1 °F /  0.1 °C 29.54in /  1000.2hPa West 8.1mph /  13km/h 5.8mph /  9.3km/h 93% 0.00in /  0mm 0.00 W/m2
01:04 33.8 °F /  1 °C 32.0 °F /  0 °C 29.55in /  1000.6hPa North 10.0mph /  16.1km/h 2.2mph /  3.5km/h 93% 0.00in /  0mm 0.00 W/m2
01:09 33.8 °F /  1 °C 32.0 °F /  0 °C 29.55in /  1000.6hPa WNW 3.5mph /  5.6km/h 0.7mph /  1.1km/h 93% 0.00in /  0mm 0.00 W/m2
01:14 33.7 °F /  0.9 °C 31.9 °F /  -0.1 °C 29.56in /  1000.9hPa NNW 3.5mph /  5.6km/h 4.4mph /  7.1km/h 93% 0.00in /  0mm 0.00 W/m2
01:19 33.6 °F /  0.9 °C 31.8 °F /  -0.1 °C 29.56in /  1000.9hPa NNW 10.4mph /  16.7km/h 0.7mph /  1.1km/h 93% 0.00in /  0mm 0.00 W/m2
01:24 33.6 °F /  0.9 °C 31.5 °F /  -0.3 °C 29.56in /  1000.9hPa West 4.0mph /  6.4km/h 1.4mph /  2.3km/h 92% 0.00in /  0mm 0.00 W/m2
01:29 33.5 °F /  0.8 °C 31.4 °F /  -0.3 °C 29.57in /  1001.2hPa NNW 4.0mph /  6.4km/h 1.9mph /  3.1km/h 92% 0.00in /  0mm 0.00 W/m2
01:34 33.5 °F /  0.8 °C 31.4 °F /  -0.3 °C 29.57in /  1001.2hPa WNW 3.5mph /  5.6km/h 3.3mph /  5.3km/h 92% 0.00in /  0mm 0.00 W/m2
01:39 33.5 °F /  0.8 °C 31.4 °F /  -0.3 °C 29.58in /  1001.6hPa SW 2.3mph /  3.7km/h 2.7mph /  4.3km/h 92% 0.00in /  0mm 0.00 W/m2
01:44 33.5 °F /  0.8 °C 31.4 °F /  -0.3 °C 29.59in /  1001.9hPa WSW 5.8mph /  9.3km/h 1.0mph /  1.6km/h 92% 0.00in /  0mm 0.00 W/m2
01:49 33.4 °F /  0.8 °C 31.3 °F /  -0.4 °C 29.59in /  1001.9hPa WNW 9.0mph /  14.5km/h 3.2mph /  5.1km/h 92% 0.00in /  0mm 0.00 W/m2
01:54 33.4 °F /  0.8 °C 31.1 °F /  -0.5 °C 29.59in /  1001.9hPa SW 10.4mph /  16.7km/h 1.1mph /  1.8km/h 91% 0.00in /  0mm 0.00 W/m2
01:59 33.4 °F /  0.8 °C 31.1 °F /  -0.5 °C 29.59in /  1001.9hPa SW 8.1mph /  13km/h 1.2mph /  1.9km/h 91% 0.00in /  0mm 0.00 W/m2
02:04 33.4 °F /  0.8 °C 31.1 °F /  -0.5 °C 29.59in /  1001.9hPa West 10.4mph /  16.7km/h 3.3mph /  5.3km/h 91% 0.00in /  0mm 0.00 W/m2
02:09 33.3 °F /  0.7 °C 31.0 °F /  -0.6 °C 29.60in /  1002.3hPa NNW 4.6mph /  7.4km/h 3.6mph /  5.8km/h 91% 0.00in /  0mm 0.00 W/m2
02:14 33.3 °F /  0.7 °C 31.0 °F /  -0.6 °C 29.60in /  1002.3hPa North 3.5mph /  5.6km/h 1.2mph /  1.9km/h 91% 0.00in /  0mm 0.00 W/m2
02:19 33.2 °F /  0.7 °C 30.9 °F /  -0.6 °C 29.60in /  1002.3hPa NNW 8.1mph /  13km/h 3.5mph /  5.6km/h 91% 0.00in /  0mm 0.00 W/m2
02:24 33.2 °F /  0.7 °C 30.9 °F /  -0.6 °C 29.61in /  1002.6hPa West 9.2mph /  14.8km/h 1.1mph /  1.8km/h 91% 0.00in /  0mm 0.00 W/m2
02:29 33.2 °F /  0.7 °C 30.9 °F /  -0.6 °C 29.61in /  1002.6hPa NW 2.3mph /  3.7km/h 1.3mph /  2.1km/h 91% 0.00in /  0mm 0.00 W/m2
02:34 33.2 °F /  0.7 °C 30.9 °F /  -0.6 °C 29.61in /  1002.6hPa NW 2.3mph /  3.7km/h 0.2mph /  0.3km/h 91% 0.00in /  0mm 0.00 W/m2
02:39 33.1 °F /  0.6 °C 30.8 °F /  -0.7 °C 29.62in /  1002.9hPa West 6.9mph /  11.1km/h 3.3mph /  5.3km/h 91% 0.00in /  0mm 0.00 W/m2
02:44 33.1 °F /  0.6 °C 31.0 °F /  -0.6 °C 29.62in /  1002.9hPa West 3.5mph /  5.6km/h 2.4mph /  3.9km/h 92% 0.00in /  0mm 0.00 W/m2
02:49 32.9 °F /  0.5 °C 30.6 °F /  -0.8 °C 29.62in /  1002.9hPa North 8.1mph /  13km/h 4.4mph /  7.1km/h 91% 0.00in /  0mm 0.00 W/m2
02:54 32.8 °F /  0.4 °C 30.2 °F /  -1 °C 29.62in /  1002.9hPa NE 9.2mph /  14.8km/h 0.8mph /  1.3km/h 90% 0.00in /  0mm 0.00 W/m2
02:59 32.7 °F /  0.4 °C 30.1 °F /  -1.1 °C 29.62in /  1002.9hPa West 9.2mph /  14.8km/h 3.0mph /  4.8km/h 90% 0.01in /  0.25mm 0.00 W/m2
03:04 32.7 °F /  0.4 °C 29.8 °F /  -1.2 °C 29.62in /  1002.9hPa NE 4.6mph /  7.4km/h 1.7mph /  2.7km/h 89% 0.01in /  0.25mm 0.00 W/m2
03:09 32.7 °F /  0.4 °C 29.8 °F /  -1.2 °C 29.62in /  1002.9hPa West 1.2mph /  1.9km/h 0.4mph /  0.6km/h 89% 0.01in /  0.25mm 0.00 W/m2
03:14 32.7 °F /  0.4 °C 29.8 °F /  -1.2 °C 29.63in /  1003.3hPa WNW 3.5mph /  5.6km/h 1.5mph /  2.4km/h 89% 0.01in /  0.25mm 0.00 W/m2
03:19 32.7 °F /  0.4 °C 29.5 °F /  -1.4 °C 29.63in /  1003.3hPa SSW 10.4mph /  16.7km/h 7.5mph /  12.1km/h 88% 0.01in /  0.25mm 0.00 W/m2
03:24 32.6 °F /  0.3 °C 29.4 °F /  -1.4 °C 29.64in /  1003.6hPa NE 11.5mph /  18.5km/h 1.2mph /  1.9km/h 88% 0.01in /  0.25mm 0.00 W/m2
03:29 32.6 °F /  0.3 °C 29.4 °F /  -1.4 °C 29.64in /  1003.6hPa WSW 8.1mph /  13km/h 3.0mph /  4.8km/h 88% 0.01in /  0.25mm 0.00 W/m2
03:34 32.6 °F /  0.3 °C 29.2 °F /  -1.6 °C 29.64in /  1003.6hPa NW 13.8mph /  22.2km/h 2.4mph /  3.9km/h 87% 0.01in /  0.25mm 0.00 W/m2
03:39 32.4 °F /  0.2 °C 28.7 °F /  -1.8 °C 29.64in /  1003.6hPa NW 10.4mph /  16.7km/h 4.2mph /  6.8km/h 86% 0.01in /  0.25mm 0.00 W/m2
03:44 32.4 °F /  0.2 °C 28.7 °F /  -1.8 °C 29.64in /  1003.6hPa West 11.5mph /  18.5km/h 3.3mph /  5.3km/h 86% 0.01in /  0.25mm 0.00 W/m2
03:49 32.3 °F /  0.2 °C 28.6 °F /  -1.9 °C 29.64in /  1003.6hPa NNE 5.0mph /  8km/h 2.8mph /  4.5km/h 86% 0.01in /  0.25mm 0.00 W/m2
03:54 32.2 °F /  0.1 °C 28.2 °F /  -2.1 °C 29.65in /  1003.9hPa WSW 6.9mph /  11.1km/h 4.0mph /  6.4km/h 85% 0.01in /  0.25mm 0.00 W/m2
03:59 32.2 °F /  0.1 °C 28.5 °F /  -1.9 °C 29.65in /  1003.9hPa WNW 9.2mph /  14.8km/h 2.8mph /  4.5km/h 86% 0.00in /  0mm 0.00 W/m2
04:04 32.1 °F /  0.1 °C 28.4 °F /  -2 °C 29.66in /  1004.3hPa North 3.5mph /  5.6km/h 3.0mph /  4.8km/h 86% 0.00in /  0mm 0.00 W/m2
04:09 32.0 °F /  0 °C 28.3 °F /  -2.1 °C 29.66in /  1004.3hPa NNE 9.2mph /  14.8km/h 5.1mph /  8.2km/h 86% 0.00in /  0mm 0.00 W/m2
04:14 31.9 °F /  -0.1 °C 28.2 °F /  -2.1 °C 29.67in /  1004.6hPa WNW 11.5mph /  18.5km/h 4.0mph /  6.4km/h 86% 0.00in /  0mm 0.00 W/m2
04:19 31.9 °F /  -0.1 °C 27.9 °F /  -2.3 °C 29.67in /  1004.6hPa WNW 11.5mph /  18.5km/h 3.2mph /  5.1km/h 85% 0.00in /  0mm 0.00 W/m2
04:24 31.8 °F /  -0.1 °C 27.8 °F /  -2.3 °C 29.67in /  1004.6hPa WSW 5.8mph /  9.3km/h 0.6mph /  1km/h 85% 0.00in /  0mm 0.00 W/m2
04:29 31.7 °F /  -0.2 °C 27.7 °F /  -2.4 °C 29.68in /  1005hPa WNW 9.2mph /  14.8km/h 4.3mph /  6.9km/h 85% 0.00in /  0mm 0.00 W/m2
04:34 31.7 °F /  -0.2 °C 27.4 °F /  -2.6 °C 29.68in /  1005hPa NE 11.5mph /  18.5km/h 3.2mph /  5.1km/h 84% 0.00in /  0mm 0.00 W/m2
04:39 31.5 °F /  -0.3 °C 27.5 °F /  -2.5 °C 29.68in /  1005hPa NW 8.1mph /  13km/h 4.6mph /  7.4km/h 85% 0.00in /  0mm 0.00 W/m2
04:44 31.4 °F /  -0.3 °C 27.1 °F /  -2.7 °C 29.68in /  1005hPa West 12.7mph /  20.4km/h 3.5mph /  5.6km/h 84% 0.00in /  0mm 0.00 W/m2
04:49 31.2 °F /  -0.4 °C 26.9 °F /  -2.8 °C 29.69in /  1005.3hPa WNW 6.9mph /  11.1km/h 4.9mph /  7.9km/h 84% 0.00in /  0mm 0.00 W/m2
04:54 31.2 °F /  -0.4 °C 27.2 °F /  -2.7 °C 29.69in /  1005.3hPa SW 5.0mph /  8km/h 3.0mph /  4.8km/h 85% 0.00in /  0mm 0.00 W/m2
04:59 31.0 °F /  -0.6 °C 26.7 °F /  -2.9 °C 29.69in /  1005.3hPa West 8.1mph /  13km/h 3.1mph /  5km/h 84% 0.00in /  0mm 0.00 W/m2
05:04 30.9 °F /  -0.6 °C 26.6 °F /  -3 °C 29.70in /  1005.6hPa North 11.5mph /  18.5km/h 2.9mph /  4.7km/h 84% 0.00in /  0mm 0.00 W/m2
05:09 30.9 °F /  -0.6 °C 26.9 °F /  -2.8 °C 29.70in /  1005.6hPa WSW 5.8mph /  9.3km/h 1.5mph /  2.4km/h 85% 0.00in /  0mm 0.00 W/m2
05:14 30.8 °F /  -0.7 °C 26.8 °F /  -2.9 °C 29.70in /  1005.6hPa NNE 3.5mph /  5.6km/h 3.2mph /  5.1km/h 85% 0.00in /  0mm 0.00 W/m2
05:19 30.8 °F /  -0.7 °C 26.8 °F /  -2.9 °C 29.71in /  1006hPa NNW 8.1mph /  13km/h 0.6mph /  1km/h 85% 0.00in /  0mm 0.00 W/m2
05:24 30.8 °F /  -0.7 °C 26.8 °F /  -2.9 °C 29.71in /  1006hPa SSW 2.3mph /  3.7km/h 0.3mph /  0.5km/h 85% 0.00in /  0mm 0.00 W/m2
05:29 30.8 °F /  -0.7 °C 26.8 °F /  -2.9 °C 29.71in /  1006hPa NNW 4.6mph /  7.4km/h 1.8mph /  2.9km/h 85% 0.00in /  0mm 0.00 W/m2
05:34 30.8 °F /  -0.7 °C 27.1 °F /  -2.7 °C 29.72in /  1006.3hPa West 3.5mph /  5.6km/h 1.2mph /  1.9km/h 86% 0.00in /  0mm 0.00 W/m2
05:39 30.8 °F /  -0.7 °C 27.1 °F /  -2.7 °C 29.72in /  1006.3hPa North 3.5mph /  5.6km/h 0.8mph /  1.3km/h 86% 0.00in /  0mm 0.00 W/m2
05:44 30.8 °F /  -0.7 °C 27.1 °F /  -2.7 °C 29.72in /  1006.3hPa WNW 5.0mph /  8km/h 3.3mph /  5.3km/h 86% 0.00in /  0mm 0.00 W/m2
05:49 30.8 °F /  -0.7 °C 27.1 °F /  -2.7 °C 29.73in /  1006.7hPa NW 6.0mph /  9.7km/h 3.7mph /  6km/h 86% 0.00in /  0mm 0.00 W/m2
05:54 30.8 °F /  -0.7 °C 27.4 °F /  -2.6 °C 29.73in /  1006.7hPa WSW 3.0mph /  4.8km/h 1.9mph /  3.1km/h 87% 0.00in /  0mm 0.00 W/m2
05:59 30.8 °F /  -0.7 °C 27.4 °F /  -2.6 °C 29.73in /  1006.7hPa WSW 5.0mph /  8km/h 4.1mph /  6.6km/h 87% 0.00in /  0mm 0.00 W/m2
06:04 30.8 °F /  -0.7 °C 27.1 °F /  -2.7 °C 29.73in /  1006.7hPa North 8.1mph /  13km/h 4.8mph /  7.7km/h 86% 0.00in /  0mm 0.00 W/m2
06:09 30.8 °F /  -0.7 °C 27.1 °F /  -2.7 °C 29.74in /  1007hPa WNW 4.0mph /  6.4km/h 1.7mph /  2.7km/h 86% 0.00in /  0mm 0.00 W/m2
06:14 30.6 °F /  -0.8 °C 27.2 °F /  -2.7 °C 29.75in /  1007.3hPa WSW 19.6mph /  31.5km/h 3.7mph /  6km/h 87% 0.00in /  0mm 0.00 W/m2
06:19 30.4 °F /  -0.9 °C 27.3 °F /  -2.6 °C 29.75in /  1007.3hPa West 11.5mph /  18.5km/h 3.1mph /  5km/h 88% 0.00in /  0mm 0.00 W/m2
06:24 30.1 °F /  -1.1 °C 27.3 °F /  -2.6 °C 29.76in /  1007.7hPa WSW 3.5mph /  5.6km/h 1.1mph /  1.8km/h 89% 0.01in /  0.25mm 0.00 W/m2
06:29 29.9 °F /  -1.2 °C 27.1 °F /  -2.7 °C 29.76in /  1007.7hPa WSW 5.8mph /  9.3km/h 3.3mph /  5.3km/h 89% 0.01in /  0.25mm 0.00 W/m2
06:34 29.7 °F /  -1.3 °C 26.9 °F /  -2.8 °C 29.76in /  1007.7hPa NE 13.8mph /  22.2km/h 2.9mph /  4.7km/h 89% 0.01in /  0.25mm 0.00 W/m2
06:39 29.6 °F /  -1.3 °C 26.8 °F /  -2.9 °C 29.77in /  1008hPa West 6.9mph /  11.1km/h 1.6mph /  2.6km/h 89% 0.01in /  0.25mm 0.00 W/m2
06:44 29.4 °F /  -1.4 °C 26.6 °F /  -3 °C 29.77in /  1008hPa NNE 9.2mph /  14.8km/h 2.9mph /  4.7km/h 89% 0.01in /  0.25mm 0.00 W/m2
06:49 29.3 °F /  -1.5 °C 26.7 °F /  -2.9 °C 29.77in /  1008hPa NW 3.5mph /  5.6km/h 2.1mph /  3.4km/h 90% 0.01in /  0.25mm 0.00 W/m2
06:54 29.2 °F /  -1.6 °C 26.6 °F /  -3 °C 29.77in /  1008hPa SW 4.6mph /  7.4km/h 1.7mph /  2.7km/h 90% 0.01in /  0.25mm 0.00 W/m2
06:59 29.2 °F /  -1.6 °C 26.6 °F /  -3 °C 29.78in /  1008.4hPa West 2.3mph /  3.7km/h 0.9mph /  1.4km/h 90% 0.01in /  0.25mm 0.00 W/m2
07:04 29.1 °F /  -1.6 °C 26.8 °F /  -2.9 °C 29.78in /  1008.4hPa WSW 5.8mph /  9.3km/h 2.0mph /  3.2km/h 91% 0.01in /  0.25mm 0.00 W/m2
07:09 29.0 °F /  -1.7 °C 26.7 °F /  -2.9 °C 29.78in /  1008.4hPa West 4.6mph /  7.4km/h 2.3mph /  3.7km/h 91% 0.01in /  0.25mm 0.00 W/m2
07:14 29.0 °F /  -1.7 °C 26.7 °F /  -2.9 °C 29.79in /  1008.7hPa North 5.8mph /  9.3km/h 2.8mph /  4.5km/h 91% 0.01in /  0.25mm 0.00 W/m2
07:19 28.9 °F /  -1.7 °C 26.6 °F /  -3 °C 29.79in /  1008.7hPa West 5.0mph /  8km/h 4.0mph /  6.4km/h 91% 0.01in /  0.25mm 0.00 W/m2
07:24 28.9 °F /  -1.7 °C 26.6 °F /  -3 °C 29.79in /  1008.7hPa WSW 9.2mph /  14.8km/h 4.0mph /  6.4km/h 91% 0.01in /  0.25mm 71.40 W/m2
07:29 28.9 °F /  -1.7 °C 26.6 °F /  -3 °C 29.80in /  1009hPa WNW 4.6mph /  7.4km/h 1.3mph /  2.1km/h 91% 0.01in /  0.25mm 88.60 W/m2
07:34 28.9 °F /  -1.7 °C 26.6 °F /  -3 °C 29.80in /  1009hPa WNW 8.1mph /  13km/h 5.4mph /  8.7km/h 91% 0.01in /  0.25mm 115.80 W/m2
07:39 28.9 °F /  -1.7 °C 26.3 °F /  -3.2 °C 29.81in /  1009.4hPa NE 4.0mph /  6.4km/h 2.4mph /  3.9km/h 90% 0.01in /  0.25mm 132.00 W/m2
07:44 28.9 °F /  -1.7 °C 26.3 °F /  -3.2 °C 29.81in /  1009.4hPa NNW 5.0mph /  8km/h 4.6mph /  7.4km/h 90% 0.01in /  0.25mm 140.10 W/m2
07:49 29.0 °F /  -1.7 °C 26.4 °F /  -3.1 °C 29.81in /  1009.4hPa NW 7.0mph /  11.3km/h 2.2mph /  3.5km/h 90% 0.01in /  0.25mm 140.10 W/m2
07:54 29.0 °F /  -1.7 °C 26.2 °F /  -3.2 °C 29.82in /  1009.7hPa West 11.5mph /  18.5km/h 3.9mph /  6.3km/h 89% 0.01in /  0.25mm 135.00 W/m2
07:59 29.1 °F /  -1.6 °C 26.0 °F /  -3.3 °C 29.82in /  1009.7hPa North 10.0mph /  16.1km/h 5.0mph /  8km/h 88% 0.01in /  0.25mm 145.10 W/m2
08:04 29.1 °F /  -1.6 °C 25.7 °F /  -3.5 °C 29.82in /  1009.7hPa NW 13.8mph /  22.2km/h 2.9mph /  4.7km/h 87% 0.01in /  0.25mm 158.30 W/m2
08:09 29.1 °F /  -1.6 °C 25.7 °F /  -3.5 °C 29.82in /  1009.7hPa WSW 11.5mph /  18.5km/h 4.6mph /  7.4km/h 87% 0.01in /  0.25mm 154.20 W/m2
08:14 29.1 °F /  -1.6 °C 25.7 °F /  -3.5 °C 29.83in /  1010hPa SW 5.8mph /  9.3km/h 3.3mph /  5.3km/h 87% 0.01in /  0.25mm 169.40 W/m2
08:19 29.1 °F /  -1.6 °C 25.7 °F /  -3.5 °C 29.83in /  1010hPa SW 11.5mph /  18.5km/h 3.9mph /  6.3km/h 87% 0.01in /  0.25mm 177.40 W/m2
08:24 29.1 °F /  -1.6 °C 25.7 °F /  -3.5 °C 29.83in /  1010hPa NW 5.8mph /  9.3km/h 3.5mph /  5.6km/h 87% 0.00in /  0mm 185.50 W/m2
08:29 29.1 °F /  -1.6 °C 25.7 °F /  -3.5 °C 29.83in /  1010hPa WSW 13.8mph /  22.2km/h 3.2mph /  5.1km/h 87% 0.00in /  0mm 182.50 W/m2
08:34 29.1 °F /  -1.6 °C 25.7 °F /  -3.5 °C 29.83in /  1010hPa WSW 9.2mph /  14.8km/h 3.2mph /  5.1km/h 87% 0.00in /  0mm 190.60 W/m2
08:39 29.1 °F /  -1.6 °C 25.7 °F /  -3.5 °C 29.84in /  1010.4hPa SW 3.5mph /  5.6km/h 0.9mph /  1.4km/h 87% 0.00in /  0mm 200.70 W/m2
08:44 29.0 °F /  -1.7 °C 25.3 °F /  -3.7 °C 29.84in /  1010.4hPa NW 9.0mph /  14.5km/h 5.3mph /  8.5km/h 86% 0.00in /  0mm 201.70 W/m2
08:49 29.0 °F /  -1.7 °C 25.3 °F /  -3.7 °C 29.84in /  1010.4hPa SW 12.7mph /  20.4km/h 7.0mph /  11.3km/h 86% 0.00in /  0mm 198.70 W/m2
08:54 29.0 °F /  -1.7 °C 25.1 °F /  -3.8 °C 29.84in /  1010.4hPa NW 9.2mph /  14.8km/h 2.2mph /  3.5km/h 85% 0.00in /  0mm 214.80 W/m2
08:59 29.0 °F /  -1.7 °C 25.1 °F /  -3.8 °C 29.85in /  1010.7hPa WNW 11.5mph /  18.5km/h 3.9mph /  6.3km/h 85% 0.00in /  0mm 216.80 W/m2
09:04 29.1 °F /  -1.6 °C 25.2 °F /  -3.8 °C 29.85in /  1010.7hPa West 4.0mph /  6.4km/h 2.7mph /  4.3km/h 85% 0.00in /  0mm 218.90 W/m2
09:09 29.2 °F /  -1.6 °C 25.0 °F /  -3.9 °C 29.86in /  1011.1hPa NW 11.5mph /  18.5km/h 1.9mph /  3.1km/h 84% 0.00in /  0mm 221.90 W/m2
09:14 29.2 °F /  -1.6 °C 25.0 °F /  -3.9 °C 29.86in /  1011.1hPa NNW 6.0mph /  9.7km/h 2.8mph /  4.5km/h 84% 0.00in /  0mm 225.90 W/m2
09:19 29.2 °F /  -1.6 °C 25.3 °F /  -3.7 °C 29.86in /  1011.1hPa SW 3.5mph /  5.6km/h 1.0mph /  1.6km/h 85% 0.00in /  0mm 224.90 W/m2
09:24 29.3 °F /  -1.5 °C 25.4 °F /  -3.7 °C 29.86in /  1011.1hPa West 7.0mph /  11.3km/h 0.4mph /  0.6km/h 85% 0.00in /  0mm 221.90 W/m2
09:29 29.5 °F /  -1.4 °C 25.3 °F /  -3.7 °C 29.86in /  1011.1hPa West 5.8mph /  9.3km/h 2.2mph /  3.5km/h 84% 0.00in /  0mm 221.90 W/m2
09:34 29.7 °F /  -1.3 °C 25.7 °F /  -3.5 °C 29.87in /  1011.4hPa West 1.2mph /  1.9km/h 0.2mph /  0.3km/h 85% 0.00in /  0mm 226.90 W/m2
09:39 29.8 °F /  -1.2 °C 25.6 °F /  -3.6 °C 29.87in /  1011.4hPa North 8.1mph /  13km/h 3.2mph /  5.1km/h 84% 0.00in /  0mm 234.00 W/m2
09:44 29.8 °F /  -1.2 °C 25.6 °F /  -3.6 °C 29.87in /  1011.4hPa NNE 9.2mph /  14.8km/h 2.9mph /  4.7km/h 84% 0.00in /  0mm 239.10 W/m2
09:49 29.9 °F /  -1.2 °C 25.7 °F /  -3.5 °C 29.88in /  1011.7hPa SE 11.5mph /  18.5km/h 4.0mph /  6.4km/h 84% 0.00in /  0mm 243.10 W/m2
09:54 30.0 °F /  -1.1 °C 25.8 °F /  -3.4 °C 29.88in /  1011.7hPa WNW 3.5mph /  5.6km/h 1.4mph /  2.3km/h 84% 0.00in /  0mm 248.20 W/m2
09:59 30.2 °F /  -1 °C 25.9 °F /  -3.4 °C 29.88in /  1011.7hPa West 3.5mph /  5.6km/h 2.5mph /  4km/h 84% 0.00in /  0mm 243.10 W/m2
10:04 30.3 °F /  -0.9 °C 26.3 °F /  -3.2 °C 29.88in /  1011.7hPa SW 4.6mph /  7.4km/h 3.1mph /  5km/h 85% 0.00in /  0mm 244.10 W/m2
10:09 30.3 °F /  -0.9 °C 26.0 °F /  -3.3 °C 29.88in /  1011.7hPa NNW 3.5mph /  5.6km/h 3.6mph /  5.8km/h 84% 0.00in /  0mm 244.10 W/m2
10:14 30.3 °F /  -0.9 °C 26.0 °F /  -3.3 °C 29.89in /  1012.1hPa WSW 5.8mph /  9.3km/h 3.6mph /  5.8km/h 84% 0.00in /  0mm 255.20 W/m2
10:19 30.4 °F /  -0.9 °C 26.1 °F /  -3.3 °C 29.88in /  1011.7hPa WSW 3.5mph /  5.6km/h 2.2mph /  3.5km/h 84% 0.00in /  0mm 250.20 W/m2
10:24 30.5 °F /  -0.8 °C 26.0 °F /  -3.3 °C 29.89in /  1012.1hPa SW 3.0mph /  4.8km/h 3.1mph /  5km/h 83% 0.00in /  0mm 260.30 W/m2
10:29 30.6 °F /  -0.8 °C 26.1 °F /  -3.3 °C 29.89in /  1012.1hPa WNW 11.0mph /  17.7km/h 6.4mph /  10.3km/h 83% 0.00in /  0mm 270.40 W/m2
10:34 30.6 °F /  -0.8 °C 25.8 °F /  -3.4 °C 29.89in /  1012.1hPa WSW 3.5mph /  5.6km/h 1.5mph /  2.4km/h 82% 0.00in /  0mm 269.40 W/m2
10:39 30.6 °F /  -0.8 °C 25.8 °F /  -3.4 °C 29.89in /  1012.1hPa NW 5.8mph /  9.3km/h 6.3mph /  10.1km/h 82% 0.00in /  0mm 269.40 W/m2
10:44 30.7 °F /  -0.7 °C 25.6 °F /  -3.6 °C 29.90in /  1012.4hPa WNW 6.9mph /  11.1km/h 2.4mph /  3.9km/h 81% 0.00in /  0mm 273.40 W/m2
10:49 30.8 °F /  -0.7 °C 25.7 °F /  -3.5 °C 29.90in /  1012.4hPa North 11.5mph /  18.5km/h 3.3mph /  5.3km/h 81% 0.00in /  0mm 262.30 W/m2
10:54 30.8 °F /  -0.7 °C 25.7 °F /  -3.5 °C 29.90in /  1012.4hPa WNW 4.6mph /  7.4km/h 2.3mph /  3.7km/h 81% 0.00in /  0mm 256.20 W/m2
10:59 30.7 °F /  -0.7 °C 25.6 °F /  -3.6 °C 29.90in /  1012.4hPa NNW 10.0mph /  16.1km/h 4.4mph /  7.1km/h 81% 0.00in /  0mm 253.20 W/m2
11:04 30.6 °F /  -0.8 °C 25.8 °F /  -3.4 °C 29.90in /  1012.4hPa SW 6.9mph /  11.1km/h 3.4mph /  5.5km/h 82% 0.00in /  0mm 253.20 W/m2
11:09 30.5 °F /  -0.8 °C 25.7 °F /  -3.5 °C 29.91in /  1012.8hPa NNE 8.1mph /  13km/h 3.6mph /  5.8km/h 82% 0.00in /  0mm 252.20 W/m2
11:14 30.3 °F /  -0.9 °C 25.2 °F /  -3.8 °C 29.91in /  1012.8hPa WSW 9.2mph /  14.8km/h 4.5mph /  7.2km/h 81% 0.00in /  0mm 251.20 W/m2
11:19 30.3 °F /  -0.9 °C 24.9 °F /  -3.9 °C 29.91in /  1012.8hPa West 12.0mph /  19.3km/h 7.1mph /  11.4km/h 80% 0.00in /  0mm 253.20 W/m2
11:24 30.2 °F /  -1 °C 24.5 °F /  -4.2 °C 29.91in /  1012.8hPa East 4.6mph /  7.4km/h 2.9mph /  4.7km/h 79% 0.00in /  0mm 251.20 W/m2
11:29 30.1 °F /  -1.1 °C 24.4 °F /  -4.2 °C 29.91in /  1012.8hPa NNE 13.8mph /  22.2km/h 5.7mph /  9.2km/h 79% 0.00in /  0mm 257.20 W/m2
11:34 30.1 °F /  -1.1 °C 24.4 °F /  -4.2 °C 29.92in /  1013.1hPa North 9.2mph /  14.8km/h 4.6mph /  7.4km/h 79% 0.00in /  0mm 263.30 W/m2
11:39 30.3 °F /  -0.9 °C 24.3 °F /  -4.3 °C 29.92in /  1013.1hPa NE 6.9mph /  11.1km/h 2.7mph /  4.3km/h 78% 0.00in /  0mm 290.60 W/m2
11:44 30.5 °F /  -0.8 °C 24.5 °F /  -4.2 °C 29.92in /  1013.1hPa NNW 5.8mph /  9.3km/h 3.0mph /  4.8km/h 78% 0.00in /  0mm 307.70 W/m2
11:49 30.7 °F /  -0.7 °C 24.7 °F /  -4.1 °C 29.92in /  1013.1hPa SSW 9.2mph /  14.8km/h 2.9mph /  4.7km/h 78% 0.00in /  0mm 297.60 W/m2
11:54 31.0 °F /  -0.6 °C 24.9 °F /  -3.9 °C 29.92in /  1013.1hPa WSW 4.0mph /  6.4km/h 1.2mph /  1.9km/h 78% 0.00in /  0mm 294.60 W/m2
11:59 31.1 °F /  -0.5 °C 25.3 °F /  -3.7 °C 29.92in /  1013.1hPa NNW 7.0mph /  11.3km/h 4.9mph /  7.9km/h 79% 0.00in /  0mm 283.50 W/m2
12:04 31.1 °F /  -0.5 °C 25.3 °F /  -3.7 °C 29.93in /  1013.4hPa NNE 2.3mph /  3.7km/h 2.2mph /  3.5km/h 79% 0.00in /  0mm 281.50 W/m2
12:09 31.1 °F /  -0.5 °C 24.7 °F /  -4.1 °C 29.93in /  1013.4hPa West 8.1mph /  13km/h 2.7mph /  4.3km/h 77% 0.00in /  0mm 295.60 W/m2
12:14 30.9 °F /  -0.6 °C 24.5 °F /  -4.2 °C 29.93in /  1013.4hPa WSW 8.1mph /  13km/h 2.9mph /  4.7km/h 77% 0.00in /  0mm 289.60 W/m2
12:19 30.7 °F /  -0.7 °C 24.3 °F /  -4.3 °C 29.93in /  1013.4hPa WNW 10.4mph /  16.7km/h 4.3mph /  6.9km/h 77% 0.00in /  0mm 280.50 W/m2
12:24 30.7 °F /  -0.7 °C 24.3 °F /  -4.3 °C 29.94in /  1013.8hPa WSW 4.6mph /  7.4km/h 2.6mph /  4.2km/h 77% 0.00in /  0mm 290.60 W/m2
12:29 30.9 °F /  -0.6 °C 24.5 °F /  -4.2 °C 29.94in /  1013.8hPa WNW 10.4mph /  16.7km/h 2.2mph /  3.5km/h 77% 0.00in /  0mm 291.60 W/m2
12:34 30.9 °F /  -0.6 °C 24.2 °F /  -4.3 °C 29.94in /  1013.8hPa NW 3.5mph /  5.6km/h 2.6mph /  4.2km/h 76% 0.00in /  0mm 295.60 W/m2
12:39 30.9 °F /  -0.6 °C 24.2 °F /  -4.3 °C 29.94in /  1013.8hPa WSW 6.9mph /  11.1km/h 2.3mph /  3.7km/h 76% 0.00in /  0mm 285.50 W/m2
12:44 31.0 °F /  -0.6 °C 24.3 °F /  -4.3 °C 29.95in /  1014.1hPa West 10.0mph /  16.1km/h 4.7mph /  7.6km/h 76% 0.00in /  0mm 384.50 W/m2
12:49 31.3 °F /  -0.4 °C 24.3 °F /  -4.3 °C 29.95in /  1014.1hPa South 12.7mph /  20.4km/h 1.7mph /  2.7km/h 75% 0.00in /  0mm 341.10 W/m2
12:54 31.4 °F /  -0.3 °C 23.7 °F /  -4.6 °C 29.95in /  1014.1hPa West 7.0mph /  11.3km/h 3.5mph /  5.6km/h 73% 0.00in /  0mm 379.40 W/m2
12:59 31.5 °F /  -0.3 °C 23.8 °F /  -4.6 °C 29.95in /  1014.1hPa NNE 3.5mph /  5.6km/h 3.8mph /  6.1km/h 73% 0.00in /  0mm 362.30 W/m2
13:04 31.7 °F /  -0.2 °C 24.0 °F /  -4.4 °C 29.95in /  1014.1hPa WNW 6.9mph /  11.1km/h 2.7mph /  4.3km/h 73% 0.00in /  0mm 541.10 W/m2
13:09 31.7 °F /  -0.2 °C 23.7 °F /  -4.6 °C 29.96in /  1014.4hPa WSW 5.0mph /  8km/h 3.5mph /  5.6km/h 72% 0.00in /  0mm 301.70 W/m2
13:14 31.5 °F /  -0.3 °C 24.2 °F /  -4.3 °C 29.96in /  1014.4hPa West 9.2mph /  14.8km/h 1.3mph /  2.1km/h 74% 0.00in /  0mm 281.50 W/m2
13:19 31.4 °F /  -0.3 °C 24.1 °F /  -4.4 °C 29.96in /  1014.4hPa SW 9.2mph /  14.8km/h 2.9mph /  4.7km/h 74% 0.00in /  0mm 277.40 W/m2
13:24 31.2 °F /  -0.4 °C 24.2 °F /  -4.3 °C 29.96in /  1014.4hPa WNW 5.8mph /  9.3km/h 3.3mph /  5.3km/h 75% 0.00in /  0mm 273.40 W/m2
13:29 31.0 °F /  -0.6 °C 24.3 °F /  -4.3 °C 29.97in /  1014.8hPa West 11.5mph /  18.5km/h 4.4mph /  7.1km/h 76% 0.00in /  0mm 276.40 W/m2
13:34 30.9 °F /  -0.6 °C 23.9 °F /  -4.5 °C 29.97in /  1014.8hPa West 6.0mph /  9.7km/h 3.6mph /  5.8km/h 75% 0.00in /  0mm 281.50 W/m2
13:39 31.0 °F /  -0.6 °C 24.0 °F /  -4.4 °C 29.97in /  1014.8hPa NNW 6.9mph /  11.1km/h 1.7mph /  2.7km/h 75% 0.00in /  0mm 321.90 W/m2
13:44 31.2 °F /  -0.4 °C 24.2 °F /  -4.3 °C 29.97in /  1014.8hPa North 9.2mph /  14.8km/h 4.6mph /  7.4km/h 75% 0.00in /  0mm 316.80 W/m2
13:49 31.4 °F /  -0.3 °C 23.7 °F /  -4.6 °C 29.97in /  1014.8hPa WNW 11.5mph /  18.5km/h 4.5mph /  7.2km/h 73% 0.00in /  0mm 311.80 W/m2
13:54 31.5 °F /  -0.3 °C 23.5 °F /  -4.7 °C 29.97in /  1014.8hPa West 3.5mph /  5.6km/h 1.9mph /  3.1km/h 72% 0.00in /  0mm 321.90 W/m2
13:59 31.7 °F /  -0.2 °C 23.4 °F /  -4.8 °C 29.97in /  1014.8hPa WSW 16.0mph /  25.7km/h 6.1mph /  9.8km/h 71% 0.00in /  0mm 321.90 W/m2
14:04 31.6 °F /  -0.2 °C 22.9 °F /  -5.1 °C 29.98in /  1015.1hPa SW 8.1mph /  13km/h 1.8mph /  2.9km/h 70% 0.00in /  0mm 337.00 W/m2
14:09 31.6 °F /  -0.2 °C 23.3 °F /  -4.8 °C 29.98in /  1015.1hPa West 4.6mph /  7.4km/h 3.4mph /  5.5km/h 71% 0.00in /  0mm 324.90 W/m2
14:14 31.7 °F /  -0.2 °C 23.4 °F /  -4.8 °C 29.98in /  1015.1hPa North 3.5mph /  5.6km/h 4.0mph /  6.4km/h 71% 0.00in /  0mm 328.90 W/m2
14:19 31.8 °F /  -0.1 °C 23.1 °F /  -4.9 °C 29.98in /  1015.1hPa SE 9.2mph /  14.8km/h 2.3mph /  3.7km/h 70% 0.00in /  0mm 311.80 W/m2
14:24 31.7 °F /  -0.2 °C 23.4 °F /  -4.8 °C 29.98in /  1015.1hPa SW 4.6mph /  7.4km/h 2.8mph /  4.5km/h 71% 0.00in /  0mm 311.80 W/m2
14:29 31.6 °F /  -0.2 °C 23.6 °F /  -4.7 °C 29.98in /  1015.1hPa West 3.5mph /  5.6km/h 2.0mph /  3.2km/h 72% 0.00in /  0mm 299.70 W/m2
14:34 31.5 °F /  -0.3 °C 23.5 °F /  -4.7 °C 29.99in /  1015.5hPa NNW 8.0mph /  12.9km/h 4.0mph /  6.4km/h 72% 0.00in /  0mm 277.40 W/m2
14:39 31.4 °F /  -0.3 °C 22.7 °F /  -5.2 °C 29.99in /  1015.5hPa WNW 10.4mph /  16.7km/h 4.8mph /  7.7km/h 70% 0.00in /  0mm 278.40 W/m2
14:44 31.3 °F /  -0.4 °C 22.6 °F /  -5.2 °C 29.99in /  1015.5hPa West 9.2mph /  14.8km/h 4.5mph /  7.2km/h 70% 0.00in /  0mm 306.70 W/m2
14:49 31.3 °F /  -0.4 °C 22.6 °F /  -5.2 °C 29.99in /  1015.5hPa SSW 4.6mph /  7.4km/h 4.0mph /  6.4km/h 70% 0.00in /  0mm 306.70 W/m2
14:54 31.5 °F /  -0.3 °C 23.2 °F /  -4.9 °C 29.99in /  1015.5hPa East 3.5mph /  5.6km/h 3.7mph /  6km/h 71% 0.00in /  0mm 305.70 W/m2
14:59 31.6 °F /  -0.2 °C 22.9 °F /  -5.1 °C 30.00in /  1015.8hPa West 9.2mph /  14.8km/h 4.1mph /  6.6km/h 70% 0.00in /  0mm 308.80 W/m2
15:04 31.8 °F /  -0.1 °C 22.4 °F /  -5.3 °C 29.99in /  1015.5hPa WSW 10.4mph /  16.7km/h 6.4mph /  10.3km/h 68% 0.00in /  0mm 308.80 W/m2
15:09 31.9 °F /  -0.1 °C 22.5 °F /  -5.3 °C 30.00in /  1015.8hPa West 9.2mph /  14.8km/h 6.6mph /  10.6km/h 68% 0.00in /  0mm 338.00 W/m2
15:14 31.8 °F /  -0.1 °C 22.1 °F /  -5.5 °C 30.00in /  1015.8hPa West 6.9mph /  11.1km/h 1.8mph /  2.9km/h 67% 0.00in /  0mm 316.80 W/m2
15:19 31.8 °F /  -0.1 °C 22.4 °F /  -5.3 °C 30.01in /  1016.1hPa WNW 10.4mph /  16.7km/h 3.1mph /  5km/h 68% 0.00in /  0mm 314.80 W/m2
15:24 31.7 °F /  -0.2 °C 22.0 °F /  -5.6 °C 30.01in /  1016.1hPa North 10.4mph /  16.7km/h 3.5mph /  5.6km/h 67% 0.00in /  0mm 326.90 W/m2
15:29 31.8 °F /  -0.1 °C 21.7 °F /  -5.7 °C 30.01in /  1016.1hPa WSW 8.0mph /  12.9km/h 6.2mph /  10km/h 66% 0.00in /  0mm 339.10 W/m2
15:34 31.7 °F /  -0.2 °C 21.6 °F /  -5.8 °C 30.01in /  1016.1hPa NW 9.2mph /  14.8km/h 3.8mph /  6.1km/h 66% 0.00in /  0mm 313.80 W/m2
15:39 31.7 °F /  -0.2 °C 21.6 °F /  -5.8 °C 30.01in /  1016.1hPa West 8.1mph /  13km/h 4.7mph /  7.6km/h 66% 0.00in /  0mm 292.60 W/m2
15:44 31.7 °F /  -0.2 °C 21.6 °F /  -5.8 °C 30.02in /  1016.5hPa WSW 4.6mph /  7.4km/h 4.2mph /  6.8km/h 66% 0.00in /  0mm 292.60 W/m2
15:49 31.8 °F /  -0.1 °C 22.1 °F /  -5.5 °C 30.02in /  1016.5hPa WSW 2.3mph /  3.7km/h 0.9mph /  1.4km/h 67% 0.00in /  0mm 282.50 W/m2
15:54 32.0 °F /  0 °C 21.9 °F /  -5.6 °C 30.02in /  1016.5hPa SW 3.5mph /  5.6km/h 0.9mph /  1.4km/h 66% 0.00in /  0mm 312.80 W/m2
15:59 32.3 °F /  0.2 °C 21.8 °F /  -5.7 °C 30.02in /  1016.5hPa WNW 1.2mph /  1.9km/h 0.2mph /  0.3km/h 65% 0.00in /  0mm 334.00 W/m2
16:04 32.6 °F /  0.3 °C 21.4 °F /  -5.9 °C 30.02in /  1016.5hPa West 11.5mph /  18.5km/h 3.6mph /  5.8km/h 63% 0.00in /  0mm 336.00 W/m2
16:09 32.7 °F /  0.4 °C 21.1 °F /  -6.1 °C 30.02in /  1016.5hPa North 4.6mph /  7.4km/h 2.7mph /  4.3km/h 62% 0.00in /  0mm 317.80 W/m2
16:14 32.6 °F /  0.3 °C 21.0 °F /  -6.1 °C 30.02in /  1016.5hPa West 3.5mph /  5.6km/h 2.0mph /  3.2km/h 62% 0.00in /  0mm 292.60 W/m2
16:19 32.6 °F /  0.3 °C 21.0 °F /  -6.1 °C 30.02in /  1016.5hPa WNW 4.6mph /  7.4km/h 0.6mph /  1km/h 62% 0.00in /  0mm 273.40 W/m2
16:24 32.5 °F /  0.3 °C 21.3 °F /  -5.9 °C 30.02in /  1016.5hPa SSW 5.0mph /  8km/h 3.8mph /  6.1km/h 63% 0.00in /  0mm 275.40 W/m2
16:29 32.5 °F /  0.3 °C 21.3 °F /  -5.9 °C 30.03in /  1016.8hPa WSW 2.3mph /  3.7km/h 0.8mph /  1.3km/h 63% 0.00in /  0mm 270.40 W/m2
16:34 32.5 °F /  0.3 °C 20.9 °F /  -6.2 °C 30.03in /  1016.8hPa SW 10.4mph /  16.7km/h 2.0mph /  3.2km/h 62% 0.00in /  0mm 273.40 W/m2
16:39 32.3 °F /  0.2 °C 20.3 °F /  -6.5 °C 30.03in /  1016.8hPa SW 6.9mph /  11.1km/h 4.2mph /  6.8km/h 61% 0.00in /  0mm 276.40 W/m2
16:44 32.2 °F /  0.1 °C 21.4 °F /  -5.9 °C 30.03in /  1016.8hPa NW 5.8mph /  9.3km/h 0.8mph /  1.3km/h 64% 0.00in /  0mm 266.30 W/m2
16:49 32.2 °F /  0.1 °C 21.7 °F /  -5.7 °C 30.04in /  1017.2hPa West 3.5mph /  5.6km/h 2.5mph /  4km/h 65% 0.00in /  0mm 263.30 W/m2
16:54 32.1 °F /  0.1 °C 22.0 °F /  -5.6 °C 30.04in /  1017.2hPa North 9.2mph /  14.8km/h 3.6mph /  5.8km/h 66% 0.00in /  0mm 247.10 W/m2
16:59 31.8 °F /  -0.1 °C 22.1 °F /  -5.5 °C 30.05in /  1017.5hPa NNW 4.6mph /  7.4km/h 1.0mph /  1.6km/h 67% 0.00in /  0mm 245.10 W/m2
17:04 31.5 °F /  -0.3 °C 22.1 °F /  -5.5 °C 30.05in /  1017.5hPa WSW 4.0mph /  6.4km/h 2.7mph /  4.3km/h 68% 0.00in /  0mm 254.20 W/m2
17:09 31.4 °F /  -0.3 °C 22.1 °F /  -5.5 °C 30.05in /  1017.5hPa WSW 5.8mph /  9.3km/h 4.3mph /  6.9km/h 68% 0.00in /  0mm 249.20 W/m2
17:14 31.4 °F /  -0.3 °C 21.0 °F /  -6.1 °C 30.05in /  1017.5hPa NW 5.0mph /  8km/h 5.9mph /  9.5km/h 65% 0.00in /  0mm 252.20 W/m2
17:19 31.4 °F /  -0.3 °C 21.3 °F /  -5.9 °C 30.05in /  1017.5hPa WSW 6.9mph /  11.1km/h 3.4mph /  5.5km/h 66% 0.00in /  0mm 249.20 W/m2
17:24 31.4 °F /  -0.3 °C 21.7 °F /  -5.7 °C 30.05in /  1017.5hPa NE 4.0mph /  6.4km/h 2.5mph /  4km/h 67% 0.00in /  0mm 249.20 W/m2
17:29 31.5 °F /  -0.3 °C 21.8 °F /  -5.7 °C 30.06in /  1017.8hPa West 3.5mph /  5.6km/h 3.4mph /  5.5km/h 67% 0.00in /  0mm 250.20 W/m2
17:34 31.4 °F /  -0.3 °C 21.3 °F /  -5.9 °C 30.06in /  1017.8hPa NW 9.2mph /  14.8km/h 4.3mph /  6.9km/h 66% 0.00in /  0mm 244.10 W/m2
17:39 31.1 °F /  -0.5 °C 21.4 °F /  -5.9 °C 30.06in /  1017.8hPa WNW 10.4mph /  16.7km/h 2.5mph /  4km/h 67% 0.00in /  0mm 227.90 W/m2
17:44 30.9 °F /  -0.6 °C 20.9 °F /  -6.2 °C 30.06in /  1017.8hPa NW 5.0mph /  8km/h 4.6mph /  7.4km/h 66% 0.00in /  0mm 227.90 W/m2
17:49 30.9 °F /  -0.6 °C 20.9 °F /  -6.2 °C 30.06in /  1017.8hPa WSW 12.0mph /  19.3km/h 2.6mph /  4.2km/h 66% 0.00in /  0mm 236.00 W/m2
17:54 30.8 °F /  -0.7 °C 19.7 °F /  -6.8 °C 30.07in /  1018.2hPa WNW 7.0mph /  11.3km/h 5.9mph /  9.5km/h 63% 0.00in /  0mm 227.90 W/m2
17:59 30.8 °F /  -0.7 °C 18.9 °F /  -7.3 °C 30.07in /  1018.2hPa West 10.4mph /  16.7km/h 4.0mph /  6.4km/h 61% 0.00in /  0mm 224.90 W/m2
18:04 30.8 °F /  -0.7 °C 18.5 °F /  -7.5 °C 30.07in /  1018.2hPa West 3.5mph /  5.6km/h 3.1mph /  5km/h 60% 0.00in /  0mm 223.90 W/m2
18:09 30.7 °F /  -0.7 °C 18.1 °F /  -7.7 °C 30.07in /  1018.2hPa WSW 3.5mph /  5.6km/h 2.3mph /  3.7km/h 59% 0.00in /  0mm 218.90 W/m2
18:14 30.7 °F /  -0.7 °C 18.4 °F /  -7.6 °C 30.08in /  1018.5hPa NW 4.0mph /  6.4km/h 1.7mph /  2.7km/h 60% 0.00in /  0mm 216.80 W/m2
18:19 30.7 °F /  -0.7 °C 18.1 °F /  -7.7 °C 30.08in /  1018.5hPa SW 3.5mph /  5.6km/h 2.5mph /  4km/h 59% 0.00in /  0mm 207.80 W/m2
18:24 30.7 °F /  -0.7 °C 18.1 °F /  -7.7 °C 30.08in /  1018.5hPa NW 3.5mph /  5.6km/h 2.0mph /  3.2km/h 59% 0.00in /  0mm 203.70 W/m2
18:29 30.6 °F /  -0.8 °C 17.6 °F /  -8 °C 30.08in /  1018.5hPa West 13.8mph /  22.2km/h 4.6mph /  7.4km/h 58% 0.00in /  0mm 199.70 W/m2
18:34 30.5 °F /  -0.8 °C 17.9 °F /  -7.8 °C 30.08in /  1018.5hPa WNW 6.9mph /  11.1km/h 4.5mph /  7.2km/h 59% 0.00in /  0mm 184.50 W/m2
18:39 30.5 °F /  -0.8 °C 17.9 °F /  -7.8 °C 30.09in /  1018.8hPa West 8.1mph /  13km/h 1.4mph /  2.3km/h 59% 0.00in /  0mm 184.50 W/m2
18:44 30.4 °F /  -0.9 °C 18.5 °F /  -7.5 °C 30.09in /  1018.8hPa NNE 5.8mph /  9.3km/h 2.5mph /  4km/h 61% 0.00in /  0mm 181.50 W/m2
18:49 30.3 °F /  -0.9 °C 18.5 °F /  -7.5 °C 30.09in /  1018.8hPa SW 4.6mph /  7.4km/h 2.2mph /  3.5km/h 61% 0.00in /  0mm 168.40 W/m2
18:54 30.2 °F /  -1 °C 18.4 °F /  -7.6 °C 30.09in /  1018.8hPa WNW 6.9mph /  11.1km/h 2.4mph /  3.9km/h 61% 0.00in /  0mm 165.30 W/m2
18:59 30.1 °F /  -1.1 °C 18.6 °F /  -7.4 °C 30.09in /  1018.8hPa WNW 10.4mph /  16.7km/h 2.0mph /  3.2km/h 62% 0.00in /  0mm 147.20 W/m2
19:04 30.1 °F /  -1.1 °C 18.3 °F /  -7.6 °C 30.10in /  1019.2hPa WSW 4.6mph /  7.4km/h 3.1mph /  5km/h 61% 0.00in /  0mm 131.00 W/m2
19:09 30.0 °F /  -1.1 °C 18.5 °F /  -7.5 °C 30.10in /  1019.2hPa SW 11.5mph /  18.5km/h 2.4mph /  3.9km/h 62% 0.00in /  0mm 121.90 W/m2
19:14 29.9 °F /  -1.2 °C 18.8 °F /  -7.3 °C 30.10in /  1019.2hPa West 2.3mph /  3.7km/h   63% 0.00in /  0mm 98.70 W/m2
19:19 29.9 °F /  -1.2 °C 18.5 °F /  -7.5 °C 30.11in /  1019.5hPa WSW 7.0mph /  11.3km/h 3.7mph /  6km/h 62% 0.00in /  0mm 61.30 W/m2
19:24 29.9 °F /  -1.2 °C 19.2 °F /  -7.1 °C 30.11in /  1019.5hPa NW 3.5mph /  5.6km/h 0.3mph /  0.5km/h 64% 0.00in /  0mm 0.00 W/m2
19:29 29.8 °F /  -1.2 °C 18.7 °F /  -7.4 °C 30.11in /  1019.5hPa WSW 3.5mph /  5.6km/h 0.7mph /  1.1km/h 63% 0.00in /  0mm 0.00 W/m2
19:34 29.8 °F /  -1.2 °C 18.4 °F /  -7.6 °C 30.11in /  1019.5hPa West 3.5mph /  5.6km/h   62% 0.00in /  0mm 0.00 W/m2
19:39 29.8 °F /  -1.2 °C 18.4 °F /  -7.6 °C 30.11in /  1019.5hPa WSW 3.5mph /  5.6km/h   62% 0.00in /  0mm 0.00 W/m2
19:44 29.8 °F /  -1.2 °C 18.4 °F /  -7.6 °C 30.11in /  1019.5hPa WNW 3.5mph /  5.6km/h 1.0mph /  1.6km/h 62% 0.00in /  0mm 0.00 W/m2
19:49 29.8 °F /  -1.2 °C 19.1 °F /  -7.2 °C 30.11in /  1019.5hPa SSW 1.0mph /  1.6km/h 0.1mph /  0.2km/h 64% 0.00in /  0mm 0.00 W/m2
19:54 29.7 °F /  -1.3 °C 18.6 °F /  -7.4 °C 30.12in /  1019.9hPa SW 2.3mph /  3.7km/h   63% 0.00in /  0mm 0.00 W/m2
19:59 29.7 °F /  -1.3 °C 19.4 °F /  -7 °C 30.12in /  1019.9hPa WSW 2.3mph /  3.7km/h   65% 0.00in /  0mm 0.00 W/m2
20:04 29.6 °F /  -1.3 °C 18.5 °F /  -7.5 °C 30.12in /  1019.9hPa West 5.0mph /  8km/h 3.8mph /  6.1km/h 63% 0.00in /  0mm 0.00 W/m2
20:09 29.6 °F /  -1.3 °C 18.5 °F /  -7.5 °C 30.12in /  1019.9hPa West 5.8mph /  9.3km/h 7.4mph /  11.9km/h 63% 0.00in /  0mm 0.00 W/m2
20:14 29.6 °F /  -1.3 °C 19.3 °F /  -7.1 °C 30.13in /  1020.2hPa WNW 2.3mph /  3.7km/h   65% 0.00in /  0mm 0.00 W/m2
20:19 29.6 °F /  -1.3 °C 19.3 °F /  -7.1 °C 30.13in /  1020.2hPa Calm     65% 0.00in /  0mm 0.00 W/m2
20:24 29.6 °F /  -1.3 °C 18.9 °F /  -7.3 °C 30.13in /  1020.2hPa SW 3.5mph /  5.6km/h 1.3mph /  2.1km/h 64% 0.00in /  0mm 0.00 W/m2
20:29 29.6 °F /  -1.3 °C 19.3 °F /  -7.1 °C 30.13in /  1020.2hPa West 4.6mph /  7.4km/h 1.2mph /  1.9km/h 65% 0.00in /  0mm 0.00 W/m2
20:34 29.6 °F /  -1.3 °C 18.9 °F /  -7.3 °C 30.13in /  1020.2hPa North 4.6mph /  7.4km/h 0.1mph /  0.2km/h 64% 0.00in /  0mm 0.00 W/m2
20:39 29.6 °F /  -1.3 °C 19.6 °F /  -6.9 °C 30.13in /  1020.2hPa SW 4.6mph /  7.4km/h 2.3mph /  3.7km/h 66% 0.00in /  0mm 0.00 W/m2
20:44 29.5 °F /  -1.4 °C 19.2 °F /  -7.1 °C 30.13in /  1020.2hPa WSW 3.5mph /  5.6km/h 1.6mph /  2.6km/h 65% 0.00in /  0mm 0.00 W/m2
20:49 29.5 °F /  -1.4 °C 19.2 °F /  -7.1 °C 30.13in /  1020.2hPa NW 3.5mph /  5.6km/h 4.6mph /  7.4km/h 65% 0.00in /  0mm 0.00 W/m2
20:54 29.5 °F /  -1.4 °C 19.5 °F /  -6.9 °C 30.14in /  1020.5hPa SW 3.5mph /  5.6km/h 1.9mph /  3.1km/h 66% 0.00in /  0mm 0.00 W/m2
20:59 29.4 °F /  -1.4 °C 19.8 °F /  -6.8 °C 30.14in /  1020.5hPa WNW 4.6mph /  7.4km/h 2.1mph /  3.4km/h 67% 0.00in /  0mm 0.00 W/m2
21:04 29.3 °F /  -1.5 °C 19.3 °F /  -7.1 °C 30.14in /  1020.5hPa West 6.9mph /  11.1km/h 4.8mph /  7.7km/h 66% 0.00in /  0mm 0.00 W/m2
21:09 29.2 °F /  -1.6 °C 19.2 °F /  -7.1 °C 30.14in /  1020.5hPa SW 1.2mph /  1.9km/h   66% 0.00in /  0mm 0.00 W/m2
21:14 29.0 °F /  -1.7 °C 19.4 °F /  -7 °C 30.14in /  1020.5hPa WNW 2.3mph /  3.7km/h 0.3mph /  0.5km/h 67% 0.00in /  0mm 0.00 W/m2
21:19 29.0 °F /  -1.7 °C 19.8 °F /  -6.8 °C 30.14in /  1020.5hPa West 2.0mph /  3.2km/h   68% 0.00in /  0mm 0.00 W/m2
21:24 28.9 °F /  -1.7 °C 20.0 °F /  -6.7 °C 30.14in /  1020.5hPa Calm   0.2mph /  0.3km/h 69% 0.00in /  0mm 0.00 W/m2
21:29 28.9 °F /  -1.7 °C 19.3 °F /  -7.1 °C 30.14in /  1020.5hPa SSW 3.5mph /  5.6km/h 1.5mph /  2.4km/h 67% 0.00in /  0mm 0.00 W/m2
21:34 28.9 °F /  -1.7 °C 19.7 °F /  -6.8 °C 30.14in /  1020.5hPa West 3.5mph /  5.6km/h 3.6mph /  5.8km/h 68% 0.00in /  0mm 0.00 W/m2
21:39 29.0 °F /  -1.7 °C 19.8 °F /  -6.8 °C 30.15in /  1020.9hPa SW 1.2mph /  1.9km/h 0.1mph /  0.2km/h 68% 0.00in /  0mm 0.00 W/m2
21:44 29.0 °F /  -1.7 °C 19.8 °F /  -6.8 °C 30.15in /  1020.9hPa SW 2.3mph /  3.7km/h 1.4mph /  2.3km/h 68% 0.00in /  0mm 0.00 W/m2
21:49 28.9 °F /  -1.7 °C 19.7 °F /  -6.8 °C 30.15in /  1020.9hPa SSW 2.3mph /  3.7km/h   68% 0.00in /  0mm 0.00 W/m2
21:54 28.9 °F /  -1.7 °C 20.7 °F /  -6.3 °C 30.15in /  1020.9hPa SSW 1.0mph /  1.6km/h 0.9mph /  1.4km/h 71% 0.00in /  0mm 0.00 W/m2
21:59 29.0 °F /  -1.7 °C 20.1 °F /  -6.6 °C 30.15in /  1020.9hPa WSW 3.5mph /  5.6km/h 1.6mph /  2.6km/h 69% 0.00in /  0mm 0.00 W/m2
22:04 29.0 °F /  -1.7 °C 20.4 °F /  -6.4 °C 30.15in /  1020.9hPa WSW 3.5mph /  5.6km/h 0.3mph /  0.5km/h 70% 0.00in /  0mm 0.00 W/m2
22:09 29.0 °F /  -1.7 °C 21.1 °F /  -6.1 °C 30.16in /  1021.2hPa Calm     72% 0.00in /  0mm 0.00 W/m2
22:14 29.0 °F /  -1.7 °C 21.1 °F /  -6.1 °C 30.16in /  1021.2hPa SW 10.4mph /  16.7km/h 3.8mph /  6.1km/h 72% 0.00in /  0mm 0.00 W/m2
22:19 29.0 °F /  -1.7 °C 21.4 °F /  -5.9 °C 30.16in /  1021.2hPa SW 3.5mph /  5.6km/h 1.0mph /  1.6km/h 73% 0.00in /  0mm 0.00 W/m2
22:24 28.9 °F /  -1.7 °C 21.7 °F /  -5.7 °C 30.16in /  1021.2hPa WNW 8.1mph /  13km/h 2.9mph /  4.7km/h 74% 0.00in /  0mm 0.00 W/m2
22:29 28.8 °F /  -1.8 °C 21.6 °F /  -5.8 °C 30.16in /  1021.2hPa WSW 9.2mph /  14.8km/h 3.0mph /  4.8km/h 74% 0.00in /  0mm 0.00 W/m2
22:34 28.8 °F /  -1.8 °C 21.9 °F /  -5.6 °C 30.16in /  1021.2hPa West 3.5mph /  5.6km/h 1.2mph /  1.9km/h 75% 0.00in /  0mm 0.00 W/m2
22:39 28.7 °F /  -1.8 °C 21.8 °F /  -5.7 °C 30.16in /  1021.2hPa NNE 3.5mph /  5.6km/h 0.3mph /  0.5km/h 75% 0.00in /  0mm 0.00 W/m2
22:44 28.7 °F /  -1.8 °C 22.1 °F /  -5.5 °C 30.16in /  1021.2hPa SW 3.0mph /  4.8km/h 3.1mph /  5km/h 76% 0.00in /  0mm 0.00 W/m2
22:49 28.4 °F /  -2 °C 21.5 °F /  -5.8 °C 30.16in /  1021.2hPa WSW 4.0mph /  6.4km/h 0.8mph /  1.3km/h 75% 0.00in /  0mm 0.00 W/m2
22:54 28.3 °F /  -2.1 °C 21.7 °F /  -5.7 °C 30.17in /  1021.6hPa WNW 6.0mph /  9.7km/h 1.5mph /  2.4km/h 76% 0.00in /  0mm 0.00 W/m2
22:59 28.1 °F /  -2.2 °C 21.5 °F /  -5.8 °C 30.17in /  1021.6hPa SSW 4.6mph /  7.4km/h 3.2mph /  5.1km/h 76% 0.00in /  0mm 0.00 W/m2
23:04 28.0 °F /  -2.2 °C 21.4 °F /  -5.9 °C 30.16in /  1021.2hPa West 3.5mph /  5.6km/h 2.4mph /  3.9km/h 76% 0.00in /  0mm 0.00 W/m2
23:09 27.9 °F /  -2.3 °C 21.3 °F /  -5.9 °C 30.17in /  1021.6hPa NE 3.5mph /  5.6km/h 0.1mph /  0.2km/h 76% 0.00in /  0mm 0.00 W/m2
23:14 27.8 °F /  -2.3 °C 21.2 °F /  -6 °C 30.17in /  1021.6hPa SW 3.5mph /  5.6km/h 0.8mph /  1.3km/h 76% 0.00in /  0mm 0.00 W/m2
23:19 27.8 °F /  -2.3 °C 21.2 °F /  -6 °C 30.17in /  1021.6hPa West 11.5mph /  18.5km/h 3.6mph /  5.8km/h 76% 0.00in /  0mm 0.00 W/m2
23:24 27.8 °F /  -2.3 °C 21.2 °F /  -6 °C 30.17in /  1021.6hPa WNW 3.5mph /  5.6km/h 2.4mph /  3.9km/h 76% 0.00in /  0mm 0.00 W/m2
23:29 27.8 °F /  -2.3 °C 21.2 °F /  -6 °C 30.17in /  1021.6hPa West 3.5mph /  5.6km/h 0.1mph /  0.2km/h 76% 0.00in /  0mm 0.00 W/m2
23:34 27.8 °F /  -2.3 °C 21.2 °F /  -6 °C 30.17in /  1021.6hPa WSW 4.6mph /  7.4km/h 0.5mph /  0.8km/h 76% 0.00in /  0mm 0.00 W/m2
23:39 27.8 °F /  -2.3 °C 21.2 °F /  -6 °C 30.18in /  1021.9hPa WNW 3.0mph /  4.8km/h 1.2mph /  1.9km/h 76% 0.00in /  0mm 0.00 W/m2
23:44 27.8 °F /  -2.3 °C 21.2 °F /  -6 °C 30.18in /  1021.9hPa WSW 4.6mph /  7.4km/h 4.2mph /  6.8km/h 76% 0.00in /  0mm 0.00 W/m2
23:49 27.9 °F /  -2.3 °C 21.3 °F /  -5.9 °C 30.18in /  1021.9hPa NNW 4.6mph /  7.4km/h 4.0mph /  6.4km/h 76% 0.00in /  0mm 0.00 W/m2
23:54 27.9 °F /  -2.3 °C 21.9 °F /  -5.6 °C 30.19in /  1022.2hPa North 4.6mph /  7.4km/h 3.5mph /  5.6km/h 78% 0.00in /  0mm 0.00 W/m2
23:59 27.2 °F /  -2.7 °C 21.8 °F /  -5.7 °C 30.19in /  1022.2hPa WNW 11.5mph /  18.5km/h 4.5mph /  7.2km/h 80% 0.00in /  0mm 0.00 W/m2
Winter, Wisconsin USA
Compliments of Weather Underground - 4 mb